Terminal Aerodrome Forecast
Issued by NWS Wilmington, OH

Current Version | Previous Version | Text Only | Print | Product List | Glossary Off
Versions: 1 2 3 4 5 6 7 8 9 10 11 12 13 14 15 16 17 18 19 20 21 22 23 24 25 26 27 28 29 30 31 32

000
FTUS41 KILN 250500
TAFCVG
TAF
KCVG 250530Z 2506/2612 25011KT P6SM BKN015 OVC022
      TEMPO 2506/2508 -RASN
     FM251700 21010KT P6SM SCT015 OVC022
     FM252300 18006KT P6SM SKC=

USA.gov is the U.S. government's official web portal to all federal, state and local government web resources and services.